createdAt,value
2018-07-06T00:02:28.418Z,3.73
2018-07-06T00:05:08.775Z,2.97
2018-07-06T00:07:49.031Z,3.37
2018-07-06T00:10:29.508Z,3.13
2018-07-06T00:13:09.785Z,3.20
2018-07-06T00:15:50.054Z,3.73
2018-07-06T00:18:30.362Z,3.80
2018-07-06T00:21:10.468Z,3.93
2018-07-06T00:23:50.693Z,3.30
2018-07-06T00:26:31.038Z,3.60
2018-07-06T00:29:11.322Z,4.27
2018-07-06T00:31:51.600Z,4.00
2018-07-06T00:34:31.872Z,3.63
2018-07-06T00:37:21.558Z,3.60
2018-07-06T00:40:04.630Z,3.70
2018-07-06T00:42:44.953Z,4.20
2018-07-06T00:45:25.372Z,4.37
2018-07-06T00:48:05.623Z,4.43
2018-07-06T00:50:45.963Z,4.53
2018-07-06T00:53:26.240Z,4.13
2018-07-06T00:56:06.719Z,4.17
2018-07-06T00:58:47.100Z,3.90
2018-07-06T01:01:27.217Z,4.03
2018-07-06T01:04:07.692Z,4.30
2018-07-06T01:06:47.921Z,4.63
2018-07-06T01:09:28.151Z,4.40
2018-07-06T01:12:13.849Z,4.10
2018-07-06T01:14:54.275Z,4.10
2018-07-06T01:17:34.599Z,4.43
2018-07-06T01:20:14.910Z,4.30
2018-07-06T01:22:55.242Z,3.97
2018-07-06T01:25:35.388Z,4.23
2018-07-06T01:28:16.891Z,4.73
2018-07-06T01:30:57.276Z,4.77
2018-07-06T01:33:37.495Z,5.03
2018-07-06T01:36:17.810Z,5.10
2018-07-06T01:38:58.059Z,4.83
2018-07-06T01:41:38.417Z,4.43
2018-07-06T01:44:18.841Z,5.17
2018-07-06T01:46:59.029Z,4.33
2018-07-06T01:49:39.332Z,4.87
2018-07-06T01:52:19.529Z,4.87
2018-07-06T01:54:59.832Z,5.00
2018-07-06T01:57:40.156Z,4.80
2018-07-06T02:00:20.464Z,4.87
2018-07-06T02:03:00.749Z,5.03
2018-07-06T02:05:40.920Z,4.93
2018-07-06T02:08:21.312Z,4.20
2018-07-06T02:11:01.619Z,4.83
2018-07-06T02:13:41.912Z,5.13
2018-07-06T02:16:22.324Z,4.60
2018-07-06T02:19:02.555Z,5.30
2018-07-06T02:21:42.746Z,4.43
2018-07-06T02:24:23.044Z,4.40
2018-07-06T02:27:03.462Z,4.53
2018-07-06T02:29:43.692Z,4.90
2018-07-06T02:32:24.079Z,4.63
2018-07-06T02:35:04.413Z,4.50
2018-07-06T02:37:44.746Z,4.87
2018-07-06T02:40:24.858Z,4.70
2018-07-06T02:43:05.320Z,5.20
2018-07-06T02:45:45.849Z,5.37
2018-07-06T02:48:26.305Z,5.27
2018-07-06T02:51:06.571Z,5.23
2018-07-06T02:53:47.054Z,5.33
2018-07-06T02:56:27.395Z,5.70
2018-07-06T02:59:07.689Z,5.03
2018-07-06T03:01:48.120Z,5.47
2018-07-06T03:04:28.496Z,5.13
2018-07-06T03:07:08.848Z,5.27
2018-07-06T03:09:49.221Z,5.17
2018-07-06T03:12:29.433Z,5.20
2018-07-06T03:15:09.742Z,5.20
2018-07-06T03:17:49.926Z,6.07
2018-07-06T03:20:30.297Z,5.60
2018-07-06T03:23:10.418Z,5.33
2018-07-06T03:25:50.800Z,5.67
2018-07-06T03:28:31.314Z,5.53
2018-07-06T03:31:11.480Z,5.70
2018-07-06T03:33:51.809Z,5.70
2018-07-06T03:36:32.125Z,5.80
2018-07-06T03:39:12.447Z,5.50
2018-07-06T03:41:52.609Z,4.87
2018-07-06T03:44:32.856Z,4.70
2018-07-06T03:47:13.053Z,5.10
2018-07-06T03:49:53.298Z,5.07
2018-07-06T03:52:33.525Z,4.67
2018-07-06T03:55:13.917Z,4.93
2018-07-06T03:57:54.200Z,5.10
2018-07-06T04:00:34.530Z,5.50
2018-07-06T04:03:14.993Z,5.03
2018-07-06T04:05:55.321Z,5.27
2018-07-06T04:08:35.667Z,5.50
2018-07-06T04:11:16.119Z,5.30
2018-07-06T04:13:56.807Z,5.70
2018-07-06T04:16:36.995Z,5.83
2018-07-06T04:19:17.340Z,6.27
2018-07-06T04:21:57.634Z,6.37
2018-07-06T04:24:37.792Z,6.90
2018-07-06T04:27:17.920Z,6.80
2018-07-06T04:29:58.185Z,6.90
2018-07-06T04:32:38.361Z,6.93
2018-07-06T04:35:18.735Z,7.17
2018-07-06T04:37:58.989Z,7.40
2018-07-06T04:40:39.368Z,6.57
2018-07-06T04:43:19.577Z,6.50
2018-07-06T04:45:59.924Z,7.27
2018-07-06T04:48:40.301Z,6.90
2018-07-06T04:51:20.701Z,6.80
2018-07-06T04:54:00.951Z,6.77
2018-07-06T04:56:41.174Z,7.27
2018-07-06T04:59:21.534Z,7.20
2018-07-06T05:02:01.939Z,7.53
2018-07-06T05:04:42.255Z,9.37
2018-07-06T05:07:22.510Z,8.13
2018-07-06T05:10:02.902Z,8.40
2018-07-06T05:12:43.297Z,8.67
2018-07-06T05:15:23.612Z,7.63
2018-07-06T05:18:04.072Z,10.47
2018-07-06T05:20:44.291Z,9.67
2018-07-06T05:23:24.672Z,15.40
2018-07-06T05:26:04.915Z,14.50
2018-07-06T05:28:45.233Z,13.53
2018-07-06T05:31:25.522Z,13.03
2018-07-06T05:34:05.982Z,13.97
2018-07-06T05:36:46.139Z,18.40
2018-07-06T05:39:26.333Z,18.90
2018-07-06T05:42:06.653Z,15.63
2018-07-06T05:44:47.142Z,18.77
2018-07-06T05:47:27.429Z,13.40
2018-07-06T05:50:07.864Z,17.00
2018-07-06T05:52:48.043Z,18.07
2018-07-06T05:55:28.351Z,18.20
2018-07-06T05:58:09.042Z,22.03
2018-07-06T06:00:49.447Z,19.30
2018-07-06T06:03:29.808Z,19.77
2018-07-06T06:06:10.421Z,18.03
2018-07-06T06:08:38.330Z,19.07
2018-07-06T06:11:07.419Z,20.10
2018-07-06T06:13:36.544Z,21.03
2018-07-06T06:16:05.672Z,21.80
2018-07-06T06:18:34.866Z,20.83
2018-07-06T06:21:03.980Z,22.03
2018-07-06T06:23:33.888Z,22.23
2018-07-06T06:26:03.007Z,24.03
2018-07-06T06:28:32.103Z,22.43
2018-07-06T06:31:01.227Z,22.77
2018-07-06T06:33:30.493Z,22.50
2018-07-06T06:35:59.521Z,25.10
2018-07-06T06:38:28.677Z,23.70
2018-07-06T06:40:57.833Z,26.17
2018-07-06T06:43:26.962Z,24.43
2018-07-06T06:45:56.107Z,24.90
2018-07-06T06:48:25.226Z,24.90
2018-07-06T06:50:54.349Z,24.63
2018-07-06T06:53:23.494Z,27.20
2018-07-06T06:55:52.586Z,27.00
2018-07-06T06:58:26.554Z,27.63
2018-07-06T07:00:57.166Z,27.63
2018-07-06T07:03:26.347Z,28.07
2018-07-06T07:05:55.467Z,26.77
2018-07-06T07:08:24.576Z,27.83
2018-07-06T07:10:53.794Z,26.17
2018-07-06T07:13:29.839Z,26.20
2018-07-06T07:15:59.089Z,25.30
2018-07-06T07:18:28.636Z,27.97
2018-07-06T07:20:57.811Z,28.37
2018-07-06T07:23:26.936Z,29.70
2018-07-06T07:25:56.075Z,31.67
2018-07-06T07:28:25.133Z,32.67
2018-07-06T07:30:54.258Z,34.13
2018-07-06T07:33:23.391Z,31.67
2018-07-06T07:35:52.598Z,30.93
2018-07-06T07:38:21.723Z,31.30
2018-07-06T07:40:50.863Z,31.23
2018-07-06T07:43:20.068Z,31.37
2018-07-06T07:45:53.619Z,28.03
2018-07-06T07:48:22.694Z,28.63
2018-07-06T07:51:03.223Z,34.00
2018-07-06T07:53:43.445Z,30.07
2018-07-06T07:56:12.564Z,28.63
2018-07-06T07:58:41.678Z,28.47
2018-07-06T08:01:10.861Z,29.87
2018-07-06T08:03:40.094Z,27.27
2018-07-06T08:06:09.189Z,24.83
2018-07-06T08:08:38.333Z,23.30
2018-07-06T08:11:07.395Z,24.90
2018-07-06T08:13:36.547Z,23.87
2018-07-06T08:16:05.630Z,24.83
2018-07-06T08:18:34.745Z,23.97
2018-07-06T08:21:03.932Z,21.97
2018-07-06T08:23:33.034Z,20.47
2018-07-06T08:26:02.228Z,21.43
2018-07-06T08:28:31.318Z,20.83
2018-07-06T08:31:00.389Z,20.13
2018-07-06T08:33:32.403Z,19.10
2018-07-06T08:36:15.670Z,20.83
2018-07-06T08:38:44.764Z,20.97
2018-07-06T08:41:13.878Z,20.40
2018-07-06T08:43:42.991Z,19.97
2018-07-06T08:46:12.090Z,19.73
2018-07-06T08:48:41.222Z,19.10
2018-07-06T08:51:10.347Z,18.77
2018-07-06T08:53:39.469Z,18.63
2018-07-06T08:56:08.583Z,17.73
2018-07-06T08:58:37.681Z,20.17
2018-07-06T09:01:06.784Z,19.90
2018-07-06T09:03:36.232Z,19.47
2018-07-06T09:06:05.692Z,19.67
2018-07-06T09:08:34.735Z,19.37
2018-07-06T09:11:03.829Z,18.47
2018-07-06T09:13:32.916Z,20.03
2018-07-06T09:16:02.001Z,17.90
2018-07-06T09:18:31.111Z,25.20
2018-07-06T09:21:00.208Z,19.40
2018-07-06T09:23:29.296Z,17.00
2018-07-06T09:25:58.676Z,17.33
2018-07-06T09:28:27.598Z,17.67
2018-07-06T09:30:56.692Z,16.20
2018-07-06T09:33:25.777Z,18.50
2018-07-06T09:35:54.937Z,15.07
2018-07-06T09:38:23.990Z,18.33
2018-07-06T09:40:53.109Z,19.00
2018-07-06T09:43:22.187Z,20.23
2018-07-06T09:45:52.036Z,20.13
2018-07-06T09:48:21.091Z,19.90
2018-07-06T09:50:50.229Z,19.40
2018-07-06T09:53:19.317Z,19.80
2018-07-06T09:55:48.436Z,19.07
2018-07-06T09:58:17.552Z,18.70
2018-07-06T10:00:52.034Z,18.00
2018-07-06T10:03:21.095Z,17.57
2018-07-06T10:05:50.298Z,17.10
2018-07-06T10:08:19.381Z,15.97
2018-07-06T10:10:48.473Z,13.80
2018-07-06T10:13:17.878Z,14.83
2018-07-06T10:15:46.986Z,16.33
2018-07-06T10:18:16.066Z,14.60
2018-07-06T10:20:45.189Z,13.63
2018-07-06T10:23:14.374Z,15.23
2018-07-06T10:25:43.466Z,13.17
2018-07-06T10:28:23.047Z,12.93
2018-07-06T10:31:31.668Z,16.57
2018-07-06T10:34:00.892Z,17.13
2018-07-06T10:36:29.968Z,12.20
2018-07-06T10:38:59.063Z,11.30
2018-07-06T10:41:28.540Z,13.43
2018-07-06T10:43:57.625Z,13.20
2018-07-06T10:46:26.688Z,13.17
2018-07-06T10:48:55.788Z,11.50
2018-07-06T10:51:24.909Z,11.53
2018-07-06T10:53:54.005Z,12.23
2018-07-06T10:56:23.095Z,11.67
2018-07-06T10:58:52.268Z,12.03
2018-07-06T11:01:21.352Z,11.93
2018-07-06T11:03:50.444Z,11.50
2018-07-06T11:06:19.547Z,12.10
2018-07-06T11:08:48.736Z,12.90
2018-07-06T11:11:18.079Z,11.53
2018-07-06T11:13:47.173Z,11.57
2018-07-06T11:16:16.306Z,11.60
2018-07-06T11:18:45.360Z,11.80
2018-07-06T11:21:14.548Z,11.43
2018-07-06T11:23:43.706Z,10.87
2018-07-06T11:26:12.815Z,12.30
2018-07-06T11:28:41.949Z,11.80
2018-07-06T11:31:11.014Z,12.47
2018-07-06T11:33:40.082Z,11.47
2018-07-06T11:36:09.162Z,10.67
2018-07-06T11:38:38.331Z,9.87
2018-07-06T11:41:10.353Z,9.97
2018-07-06T11:43:39.430Z,9.60
2018-07-06T11:46:08.583Z,9.80
2018-07-06T11:48:37.688Z,10.63
2018-07-06T11:51:06.795Z,10.43
2018-07-06T11:53:35.898Z,10.80
2018-07-06T11:56:05.021Z,8.73
2018-07-06T11:58:34.269Z,9.20
2018-07-06T12:01:03.337Z,7.20
2018-07-06T12:03:32.435Z,8.27
2018-07-06T12:06:01.541Z,8.07
2018-07-06T12:08:30.643Z,7.78
2018-07-06T12:10:59.732Z,8.73
2018-07-06T12:13:28.798Z,7.33
2018-07-06T12:15:57.884Z,7.50
2018-07-06T12:18:26.994Z,8.20
2018-07-06T12:20:56.120Z,7.03
2018-07-06T12:23:25.174Z,8.58
2018-07-06T12:25:54.522Z,6.75
2018-07-06T12:28:23.597Z,6.62
2018-07-06T12:30:53.658Z,6.90
2018-07-06T12:33:22.732Z,6.67
2018-07-06T12:35:51.839Z,6.15
2018-07-06T12:38:20.886Z,6.75
2018-07-06T12:40:49.971Z,7.30
2018-07-06T12:43:19.109Z,6.33
2018-07-06T12:45:48.173Z,6.50
2018-07-06T12:48:17.298Z,7.10
2018-07-06T12:50:46.535Z,7.80
2018-07-06T12:53:15.693Z,6.17
2018-07-06T12:55:44.775Z,5.75
2018-07-06T12:58:13.921Z,5.83
2018-07-06T13:00:42.984Z,6.25
2018-07-06T13:03:12.092Z,6.30
2018-07-06T13:05:41.252Z,6.70
2018-07-06T13:08:10.357Z,6.75
2018-07-06T13:10:39.456Z,6.03
2018-07-06T13:13:08.712Z,6.20
2018-07-06T13:15:37.793Z,6.28
2018-07-06T13:18:06.864Z,5.55
2018-07-06T13:20:35.976Z,6.05
2018-07-06T13:23:05.061Z,6.03
2018-07-06T13:25:34.112Z,5.55
2018-07-06T13:28:03.201Z,5.90
2018-07-06T13:30:32.275Z,6.15
2018-07-06T13:33:01.451Z,6.22
2018-07-06T13:35:30.500Z,5.78
2018-07-06T13:37:59.630Z,6.35
2018-07-06T13:40:28.743Z,5.40
2018-07-06T13:42:57.853Z,6.03
2018-07-06T13:45:26.903Z,5.67
2018-07-06T13:47:55.983Z,5.87
2018-07-06T13:50:25.072Z,5.47
2018-07-06T13:52:54.204Z,6.20
2018-07-06T13:55:23.309Z,5.37
2018-07-06T13:57:52.399Z,5.03
2018-07-06T14:00:21.542Z,5.55
2018-07-06T14:02:50.594Z,5.33
2018-07-06T14:05:19.856Z,4.70
2018-07-06T14:07:48.939Z,5.10
2018-07-06T14:10:17.993Z,4.80
2018-07-06T14:12:47.101Z,5.13
2018-07-06T14:15:16.209Z,5.20
2018-07-06T14:17:45.296Z,6.17
2018-07-06T14:20:14.426Z,5.80
2018-07-06T14:22:43.597Z,5.60
2018-07-06T14:25:12.652Z,5.07
2018-07-06T14:27:41.739Z,5.40
2018-07-06T14:30:10.861Z,4.63
2018-07-06T14:32:39.939Z,5.00
2018-07-06T14:35:09.044Z,5.30
2018-07-06T14:37:38.182Z,5.00
2018-07-06T14:40:07.450Z,5.12
2018-07-06T14:42:42.928Z,5.28
2018-07-06T14:45:12.048Z,4.50
2018-07-06T14:47:41.155Z,5.42
2018-07-06T14:50:10.237Z,5.20
2018-07-06T14:52:39.385Z,4.50
2018-07-06T14:55:15.424Z,4.33
2018-07-06T14:57:44.499Z,4.58
2018-07-06T15:00:13.581Z,5.35
2018-07-06T15:02:42.706Z,4.95
2018-07-06T15:05:11.814Z,5.25
2018-07-06T15:07:40.944Z,5.03
2018-07-06T15:10:10.421Z,5.58
2018-07-06T15:12:39.498Z,6.15
2018-07-06T15:15:08.614Z,5.50
2018-07-06T15:17:38.009Z,5.15
2018-07-06T15:20:07.387Z,5.22
2018-07-06T15:22:36.467Z,5.05
2018-07-06T15:25:05.559Z,4.90
2018-07-06T15:27:34.693Z,5.03
2018-07-06T15:30:04.097Z,5.08
2018-07-06T15:32:33.213Z,5.00
2018-07-06T15:35:02.348Z,4.50
2018-07-06T15:37:31.405Z,4.90
2018-07-06T15:40:00.546Z,5.00
2018-07-06T15:42:29.668Z,4.92
2018-07-06T15:44:58.730Z,4.47
2018-07-06T15:47:27.875Z,4.08
2018-07-06T15:49:56.969Z,4.20
2018-07-06T15:52:26.107Z,4.30
2018-07-06T15:54:55.182Z,4.70
2018-07-06T15:57:24.298Z,4.40
2018-07-06T15:59:53.386Z,4.37
2018-07-06T16:02:22.497Z,3.83
2018-07-06T16:04:51.577Z,5.00
2018-07-06T16:07:20.676Z,4.97
2018-07-06T16:09:49.740Z,4.25
2018-07-06T16:12:18.832Z,4.08
2018-07-06T16:14:47.965Z,4.05
2018-07-06T16:17:17.069Z,3.55
2018-07-06T16:19:46.199Z,3.92
2018-07-06T16:22:15.312Z,3.37
2018-07-06T16:24:44.408Z,3.40
2018-07-06T16:27:13.455Z,3.75
2018-07-06T16:29:42.562Z,2.95
2018-07-06T16:32:11.684Z,3.00
2018-07-06T16:34:40.763Z,3.87
2018-07-06T16:37:09.921Z,3.00
2018-07-06T16:39:39.035Z,3.70
2018-07-06T16:42:08.062Z,3.62
2018-07-06T16:44:37.158Z,3.15
2018-07-06T16:47:06.218Z,3.15
2018-07-06T16:49:35.271Z,2.98
2018-07-06T16:52:04.367Z,3.33
2018-07-06T16:54:33.433Z,3.55
2018-07-06T16:57:02.524Z,3.00
2018-07-06T16:59:31.567Z,2.72
2018-07-06T17:02:00.655Z,3.62
2018-07-06T17:04:29.702Z,4.00
2018-07-06T17:09:20.988Z,3.55
2018-07-06T17:11:50.109Z,3.58
2018-07-06T17:14:19.177Z,2.80
2018-07-06T17:16:48.271Z,2.80
2018-07-06T17:19:17.989Z,2.70
2018-07-06T17:21:47.061Z,2.95
2018-07-06T17:24:16.128Z,3.30
2018-07-06T17:26:45.186Z,3.60
2018-07-06T17:29:14.268Z,3.10
2018-07-06T17:31:43.385Z,3.25
2018-07-06T17:34:12.453Z,3.62
2018-07-06T17:36:41.565Z,2.98
2018-07-06T17:39:10.735Z,3.52
2018-07-06T17:41:39.863Z,3.22
2018-07-06T17:44:08.938Z,3.77
2018-07-06T17:46:38.057Z,4.10
2018-07-06T17:49:07.138Z,5.80
2018-07-06T17:51:36.231Z,4.37
2018-07-06T17:54:05.409Z,4.10
2018-07-06T17:56:34.491Z,4.10
2018-07-06T17:59:03.611Z,3.42
2018-07-06T18:01:32.691Z,3.10
2018-07-06T18:04:01.775Z,2.87
2018-07-06T18:06:30.847Z,3.43
2018-07-06T18:08:59.958Z,3.67
2018-07-06T18:11:29.037Z,3.90
2018-07-06T18:13:58.160Z,3.83
2018-07-06T18:16:27.268Z,4.00
2018-07-06T18:18:56.412Z,3.50
2018-07-06T18:21:25.570Z,4.30
2018-07-06T18:23:54.647Z,3.72
2018-07-06T18:26:23.712Z,4.15
2018-07-06T18:28:53.191Z,3.10
2018-07-06T18:31:22.270Z,3.37
2018-07-06T18:33:51.365Z,3.27
2018-07-06T18:36:20.564Z,3.73
2018-07-06T18:38:49.670Z,4.37
2018-07-06T18:41:18.810Z,3.83
2018-07-06T18:43:47.856Z,4.63
2018-07-06T18:46:16.957Z,4.15
2018-07-06T18:48:46.056Z,5.50
2018-07-06T18:51:15.273Z,4.03
2018-07-06T18:53:44.368Z,3.47
2018-07-06T18:56:13.494Z,3.60
2018-07-06T18:58:42.574Z,3.77
2018-07-06T19:01:11.674Z,3.00
2018-07-06T19:03:40.791Z,3.60
2018-07-06T19:06:09.898Z,3.60
2018-07-06T19:08:38.956Z,4.03
2018-07-06T19:11:08.042Z,4.63
2018-07-06T19:13:37.103Z,3.43
2018-07-06T19:16:06.205Z,4.00
2018-07-06T19:18:35.343Z,3.57
2018-07-06T19:21:04.532Z,3.90
2018-07-06T19:23:33.620Z,3.70
2018-07-06T19:26:02.733Z,3.70
2018-07-06T19:28:31.813Z,3.27
2018-07-06T19:31:00.986Z,3.67
2018-07-06T19:33:30.048Z,3.90
2018-07-06T19:35:59.141Z,3.90
2018-07-06T19:38:28.243Z,3.90
2018-07-06T19:40:57.312Z,5.27
2018-07-06T19:43:26.436Z,3.30
2018-07-06T19:45:55.541Z,3.70
2018-07-06T19:48:24.658Z,4.00
2018-07-06T19:50:53.792Z,3.60
2018-07-06T19:53:23.016Z,3.93
2018-07-06T19:55:52.104Z,3.77
2018-07-06T19:58:21.358Z,3.50
2018-07-06T20:00:50.488Z,3.77
2018-07-06T20:03:19.649Z,3.63
2018-07-06T20:05:48.796Z,3.97
2018-07-06T20:08:17.893Z,4.70
2018-07-06T20:10:47.025Z,4.10
2018-07-06T20:13:16.163Z,5.43
2018-07-06T20:15:45.219Z,4.93
2018-07-06T20:18:14.300Z,4.30
2018-07-06T20:20:43.702Z,3.80
2018-07-06T20:23:12.811Z,3.70
2018-07-06T20:25:41.910Z,3.30
2018-07-06T20:28:11.131Z,4.63
2018-07-06T20:30:42.518Z,3.33
2018-07-06T20:33:11.583Z,4.33
2018-07-06T20:35:40.706Z,3.90
2018-07-06T20:38:09.796Z,3.80
2018-07-06T20:40:38.918Z,3.60
2018-07-06T20:43:08.042Z,3.23
2018-07-06T20:45:37.211Z,3.70
2018-07-06T20:48:06.380Z,3.43
2018-07-06T20:50:35.524Z,3.57
2018-07-06T20:53:04.850Z,3.00
2018-07-06T20:55:33.967Z,3.57
2018-07-06T20:58:03.088Z,3.80
2018-07-06T21:00:32.174Z,3.50
2018-07-06T21:03:01.310Z,3.43
2018-07-06T21:05:30.417Z,3.93
2018-07-06T21:07:59.548Z,3.70
2018-07-06T21:10:28.633Z,3.90
2018-07-06T21:12:57.738Z,3.37
2018-07-06T21:15:26.852Z,3.90
2018-07-06T21:17:55.948Z,3.73
2018-07-06T21:20:25.282Z,3.77
2018-07-06T21:22:54.341Z,3.67
2018-07-06T21:25:23.493Z,3.30
2018-07-06T21:27:52.584Z,4.10
2018-07-06T21:30:21.699Z,4.73
2018-07-06T21:32:50.801Z,4.97
2018-07-06T21:35:19.961Z,5.00
2018-07-06T21:37:49.050Z,3.97
2018-07-06T21:40:18.176Z,3.70
2018-07-06T21:42:47.274Z,4.00
2018-07-06T21:45:16.363Z,3.90
2018-07-06T21:47:45.429Z,4.03
2018-07-06T21:50:14.539Z,3.90
2018-07-06T21:52:43.589Z,4.40
2018-07-06T21:55:12.727Z,4.80
2018-07-06T21:57:41.851Z,4.10
2018-07-06T22:00:10.955Z,3.93
2018-07-06T22:02:40.062Z,3.33
2018-07-06T22:05:09.261Z,3.90
2018-07-06T22:07:38.422Z,3.50
2018-07-06T22:10:07.479Z,3.70
2018-07-06T22:12:36.557Z,7.17
2018-07-06T22:15:05.642Z,3.50
2018-07-06T22:17:34.879Z,3.83
2018-07-06T22:20:03.980Z,3.60
2018-07-06T22:22:33.075Z,4.20
2018-07-06T22:25:02.176Z,4.30
2018-07-06T22:27:31.224Z,4.17
2018-07-06T22:30:00.287Z,4.37
2018-07-06T22:32:29.450Z,3.70
2018-07-06T22:34:58.483Z,3.60
2018-07-06T22:37:27.570Z,3.73
2018-07-06T22:39:56.632Z,3.50
2018-07-06T22:42:25.791Z,4.43
2018-07-06T22:44:54.911Z,3.30
2018-07-06T22:47:24.000Z,3.97
2018-07-06T22:49:53.099Z,3.00
2018-07-06T22:52:22.214Z,3.43
2018-07-06T22:54:51.269Z,3.90
2018-07-06T22:57:20.428Z,3.90
2018-07-06T22:59:49.503Z,3.40
2018-07-06T23:02:18.613Z,3.60
2018-07-06T23:04:47.694Z,4.30
2018-07-06T23:07:16.756Z,3.60
2018-07-06T23:09:45.868Z,3.07
2018-07-06T23:12:14.978Z,3.50
2018-07-06T23:14:44.097Z,3.33
2018-07-06T23:17:13.144Z,3.67
2018-07-06T23:19:42.237Z,3.30
2018-07-06T23:22:11.333Z,3.47
2018-07-06T23:24:40.388Z,3.60
2018-07-06T23:27:09.648Z,3.20
2018-07-06T23:29:38.690Z,3.03
2018-07-06T23:32:07.829Z,3.53
2018-07-06T23:34:36.900Z,3.23
2018-07-06T23:37:06.000Z,3.70
2018-07-06T23:39:35.083Z,3.40
2018-07-06T23:42:04.251Z,4.03
2018-07-06T23:44:33.380Z,4.73
2018-07-06T23:47:02.441Z,4.13
2018-07-06T23:49:31.549Z,3.10
2018-07-06T23:52:00.626Z,3.63
2018-07-06T23:54:29.779Z,3.50
2018-07-06T23:56:58.820Z,3.60
2018-07-06T23:59:28.035Z,3.63
